Humidity-temperature Sensor

Selected Measurement Type: Relative Humidity

 
Relative Humidity [%]     6 entries per hour
Showing data from 3/17/2015 (00:00:00 Z) to 3/14/2015 (00:01:00 Z)
Previous Next [ Day | 3-Days | 7-Days ]
First Last
Prev [ Day | 3-Days | 7-Days ] Next
First Last

Start Time:     :
End Time:     :     
Time (in GMT) :00 :50 :40 :30 :20 :10
Previous Next [ Day | 3-Days | 7-Days ]
First Last
Prev [ Day | 3-Days | 7-Days ] Next
First Last


123 => good data
MM => data is determined as missing
-- => data not received/configured
Back to Top Back to Top
3/17/2015 00:00 to 23:10 79.50 81.68 80.76 80.49 80.83 81.82
3/16/2015 23:00 to 22:10 81.95 82.30 82.86 82.72 81.72 82.01
3/16/2015 22:00 to 21:10 80.95 81.35 80.81 80.22 81.18 81.55
3/16/2015 21:00 to 20:10 82.68 82.45 82.34 82.59 83.20 83.82
3/16/2015 20:00 to 19:10 82.86 81.66 83.07 81.99 82.32 82.12
3/16/2015 19:00 to 18:10 82.74 82.61 81.06 81.43 81.89 82.93
3/16/2015 18:00 to 17:10 82.97 83.28 81.31 82.01 83.59 81.10
3/16/2015 17:00 to 16:10 80.45 80.04 81.01 79.73 79.23 79.18
3/16/2015 16:00 to 15:10 79.14 81.74 81.26 81.39 81.91 82.64
3/16/2015 15:00 to 14:10 82.10 82.76 82.84 82.03 81.51 82.74
3/16/2015 14:00 to 13:10 81.33 81.89 82.91 82.99 82.93 82.28
3/16/2015 13:00 to 12:10 82.57 82.57 83.43 83.90 84.24 84.07
3/16/2015 12:00 to 11:10 83.84 83.34 83.20 83.34 82.93 82.41
3/16/2015 11:00 to 10:10 83.05 82.66 82.32 82.41 83.82 82.68
3/16/2015 10:00 to 9:10 82.34 82.72 83.18 82.95 83.92 84.84
3/16/2015 09:00 to 8:10 84.59 84.26 84.76 84.44 86.15 85.23
3/16/2015 08:00 to 7:10 84.40 84.88 84.84 84.78 84.80 83.82
3/16/2015 07:00 to 6:10 83.74 83.09 83.53 83.34 83.11 83.22
3/16/2015 06:00 to 5:10 83.03 82.57 82.16 81.93 82.03 83.07
3/16/2015 05:00 to 4:10 82.07 81.76 81.47 81.55 81.43 80.45
3/16/2015 04:00 to 3:10 81.87 82.24 82.95 81.68 81.64 82.24
3/16/2015 03:00 to 2:10 81.68 82.43 81.43 82.57 82.43 81.14
3/16/2015 02:00 to 1:10 81.60 80.27 81.93 82.22 81.51 81.99
3/16/2015 01:00 to 0:10 82.99 82.64 80.93 81.60 80.14 79.89
3/16/2015 00:00 to 23:10 81.12 82.07 81.70 81.99 81.45 80.60
3/15/2015 23:00 to 22:10 82.57 82.70 82.20 84.26 84.36 85.71
3/15/2015 22:00 to 21:10 86.17 85.86 85.19 86.02 86.13 85.94
3/15/2015 21:00 to 20:10 85.46 85.09 83.76 84.53 85.15 85.63
3/15/2015 20:00 to 19:10 85.77 85.46 85.90 86.61 86.00 85.11
3/15/2015 19:00 to 18:10 85.71 84.65 85.67 85.40 83.99 84.98
3/15/2015 18:00 to 17:10 83.57 82.05 82.22 82.49 82.86 84.22
3/15/2015 17:00 to 16:10 83.22 85.07 84.78 83.61 85.88 87.33
3/15/2015 16:00 to 15:10 86.50 86.61 85.96 87.02 87.23 87.48
3/15/2015 15:00 to 14:10 87.77 87.35 87.21 87.27 86.75 86.32
3/15/2015 14:00 to 13:10 85.61 85.92 85.63 87.33 88.08 88.12
3/15/2015 13:00 to 12:10 89.04 88.58 88.62 88.91 88.41 89.10
3/15/2015 12:00 to 11:10 88.41 88.93 89.35 89.00 89.79 90.51
3/15/2015 11:00 to 10:10 90.76 93.47 94.36 93.82 93.01 93.24
3/15/2015 10:00 to 9:10 94.11 94.61 94.92 95.67 94.94 94.48
3/15/2015 09:00 to 8:10 95.32 94.05 90.49 90.78 90.45 90.22
3/15/2015 08:00 to 7:10 90.39 89.85 89.75 89.37 88.75 88.58
3/15/2015 07:00 to 6:10 88.48 88.93 89.87 89.75 88.85 89.02
3/15/2015 06:00 to 5:10 88.98 87.98 87.35 87.73 87.17 87.73
3/15/2015 05:00 to 4:10 88.87 89.27 89.89 90.37 91.51 92.14
3/15/2015 04:00 to 3:10 92.20 91.87 91.57 91.93 92.26 93.88
3/15/2015 03:00 to 2:10 94.73 96.04 96.23 96.54 96.52 96.83
3/15/2015 02:00 to 1:10 95.57 94.13 93.49 95.07 96.58 97.06
3/15/2015 01:00 to 0:10 96.48 95.27 90.76 90.47 90.45 90.95
3/15/2015 00:00 to 23:10 91.43 91.30 91.53 91.32 90.45 89.77
3/14/2015 23:00 to 22:10 89.18 89.14 89.20 89.02 88.56 89.10
3/14/2015 22:00 to 21:10 88.52 89.50 89.31 89.33 89.12 90.99
3/14/2015 21:00 to 20:10 92.72 91.22 91.24 91.62 91.87 90.89
3/14/2015 20:00 to 19:10 91.93 91.57 92.72 92.88 94.32 94.88
3/14/2015 19:00 to 18:10 92.57 92.82 92.88 91.89 91.80 91.80
3/14/2015 18:00 to 17:10 92.01 90.87 88.04 87.79 88.44 88.66
3/14/2015 17:00 to 16:10 89.08 90.64 89.81 92.72 94.78 95.30
3/14/2015 16:00 to 15:10 95.69 95.90 96.85 97.67 97.85 98.33
3/14/2015 15:00 to 14:10 98.85 99.12 99.31 99.81 -- 99.81
3/14/2015 14:00 to 13:10 99.04 98.29 95.79 94.44 93.88 93.78
3/14/2015 13:00 to 12:10 94.03 94.28 94.69 95.11 95.25 95.27
3/14/2015 12:00 to 11:10 95.71 95.69 95.34 95.23 95.05 94.69
3/14/2015 11:00 to 10:10 95.40 95.84 96.09 95.59 94.96 93.49
3/14/2015 10:00 to 9:10 90.83 89.66 86.44 85.90 86.77 89.06
3/14/2015 09:00 to 8:10 90.74 90.39 90.26 89.66 88.66 89.75
3/14/2015 08:00 to 7:10 91.30 91.41 90.72 90.64 89.62 88.27
3/14/2015 07:00 to 6:10 90.35 92.24 92.55 92.70 94.73 93.61
3/14/2015 06:00 to 5:10 92.26 93.30 91.72 87.52 86.92 83.86
3/14/2015 05:00 to 4:10 83.76 85.21 85.19 85.53 85.53 85.38
3/14/2015 04:00 to 3:10 85.53 85.36 85.32 85.82 85.23 85.38
3/14/2015 03:00 to 2:10 85.55 85.59 85.48 85.61 85.15 84.84
3/14/2015 02:00 to 1:10 85.17 85.07 85.07 84.80 84.59 84.86
3/14/2015 01:00 to 0:10 84.51 84.47 84.59 84.26 83.97 84.53